createdAt,value
2023-04-21T00:01:39.812Z,101453.31
2023-04-21T00:04:07.590Z,101462.41
2023-04-21T00:06:34.733Z,101449.47
2023-04-21T00:09:01.628Z,101436.00
2023-04-21T00:11:28.473Z,101447.28
2023-04-21T00:13:56.587Z,101441.66
2023-04-21T00:16:23.493Z,101451.56
2023-04-21T00:18:50.401Z,101443.41
2023-04-21T00:21:18.930Z,101445.50
2023-04-21T00:23:47.995Z,101436.22
2023-04-21T00:26:14.923Z,101436.31
2023-04-21T00:28:41.910Z,101441.22
2023-04-21T00:31:08.827Z,101441.00
2023-04-21T00:33:35.945Z,101423.91
2023-04-21T00:36:02.897Z,101419.22
2023-04-21T00:38:29.947Z,101431.63
2023-04-21T00:40:57.054Z,101424.59
2023-04-21T00:43:23.916Z,101425.25
2023-04-21T00:45:50.979Z,101419.09
2023-04-21T00:48:17.952Z,101416.84
2023-04-21T00:50:45.514Z,101412.38
2023-04-21T00:53:13.126Z,101414.97
2023-04-21T00:55:40.158Z,101405.69
2023-04-21T00:58:07.665Z,101399.22
2023-04-21T01:00:34.500Z,101397.88
2023-04-21T01:03:01.975Z,101397.31
2023-04-21T01:05:29.402Z,101401.31
2023-04-21T01:07:56.404Z,101395.97
2023-04-21T01:10:23.430Z,101384.50
2023-04-21T01:12:50.329Z,101389.31
2023-04-21T01:15:19.086Z,101378.69
2023-04-21T01:17:46.052Z,101381.50
2023-04-21T01:20:15.200Z,101383.22
2023-04-21T01:22:42.820Z,101376.25
2023-04-21T01:25:10.300Z,101377.59
2023-04-21T01:27:37.882Z,101375.97
2023-04-21T01:30:05.619Z,101378.31
2023-04-21T01:32:32.745Z,101375.00
2023-04-21T01:35:00.437Z,101366.03
2023-04-21T01:37:29.446Z,101365.50
2023-04-21T01:39:57.520Z,101361.03
2023-04-21T01:42:25.802Z,101349.75
2023-04-21T01:44:54.126Z,101350.91
2023-04-21T01:47:21.757Z,101345.38
2023-04-21T01:49:48.731Z,101342.84
2023-04-21T01:52:15.668Z,101336.91
2023-04-21T01:54:42.702Z,101340.38
2023-04-21T01:57:09.672Z,101344.94
2023-04-21T01:59:36.810Z,101334.53
2023-04-21T02:02:07.150Z,101335.66
2023-04-21T02:04:34.585Z,101334.81
2023-04-21T02:07:01.607Z,101332.63
2023-04-21T02:09:28.508Z,101330.13
2023-04-21T02:11:57.844Z,101328.44
2023-04-21T02:14:25.329Z,101328.75
2023-04-21T02:16:52.225Z,101331.06
2023-04-21T02:19:19.320Z,101331.34
2023-04-21T02:21:46.636Z,101326.06
2023-04-21T02:24:13.527Z,101322.69
2023-04-21T02:26:40.377Z,101315.41
2023-04-21T02:29:07.610Z,101314.56
2023-04-21T02:31:40.469Z,101306.13
2023-04-21T02:34:13.406Z,101307.59
2023-04-21T02:36:40.230Z,101301.97
2023-04-21T02:39:07.051Z,101292.75
2023-04-21T02:41:33.952Z,101296.97
2023-04-21T02:44:00.892Z,101293.56
2023-04-21T02:46:27.926Z,101284.31
2023-04-21T02:48:54.977Z,101280.13
2023-04-21T02:51:21.838Z,101277.63
2023-04-21T02:53:49.120Z,101278.75
2023-04-21T02:56:16.482Z,101285.03
2023-04-21T02:58:43.273Z,101281.38
2023-04-21T03:01:10.394Z,101273.22
2023-04-21T03:03:37.403Z,101276.03
2023-04-21T03:06:05.179Z,101272.72
2023-04-21T03:08:32.169Z,101273.84
2023-04-21T03:10:58.983Z,101274.16
2023-04-21T03:13:25.885Z,101266.88
2023-04-21T03:15:55.048Z,101268.03
2023-04-21T03:18:21.825Z,101263.00
2023-04-21T03:20:48.737Z,101258.53
2023-04-21T03:23:16.198Z,101258.84
2023-04-21T03:25:43.678Z,101259.13
2023-04-21T03:28:10.839Z,101252.66
2023-04-21T03:30:37.714Z,101251.31
2023-04-21T03:33:05.124Z,101247.69
2023-04-21T03:35:32.397Z,101245.16
2023-04-21T03:37:59.545Z,101250.28
2023-04-21T03:40:27.310Z,101240.16
2023-04-21T03:42:54.079Z,101239.94
2023-04-21T03:45:22.930Z,101242.75
2023-04-21T03:47:50.034Z,101239.75
2023-04-21T03:50:17.604Z,101241.38
2023-04-21T03:52:44.400Z,101237.22
2023-04-21T03:55:12.042Z,101234.72
2023-04-21T03:57:40.365Z,101219.31
2023-04-21T04:00:07.663Z,101224.09
2023-04-21T04:02:34.822Z,101214.63
2023-04-21T04:05:02.290Z,101209.81
2023-04-21T04:07:29.170Z,101207.31
2023-04-21T04:09:55.935Z,101203.66
2023-04-21T04:12:22.796Z,101200.66
2023-04-21T04:14:49.965Z,101193.34
2023-04-21T04:17:16.827Z,101197.00
2023-04-21T04:19:43.641Z,101192.84
2023-04-21T04:22:10.629Z,101194.81
2023-04-21T04:24:37.819Z,101195.09
2023-04-21T04:27:04.792Z,101187.81
2023-04-21T04:29:32.550Z,101186.16
2023-04-21T04:32:01.934Z,101189.28
2023-04-21T04:34:28.984Z,101182.81
2023-04-21T04:36:57.689Z,101171.38
2023-04-21T04:39:26.152Z,101175.31
2023-04-21T04:41:53.486Z,101165.19
2023-04-21T04:44:20.658Z,101158.75
2023-04-21T04:46:48.080Z,101163.22
2023-04-21T04:49:15.741Z,101166.59
2023-04-21T04:51:42.873Z,101161.38
2023-04-21T04:54:09.764Z,101149.41
2023-04-21T04:56:37.026Z,101152.13
2023-04-21T04:59:03.902Z,101144.44
2023-04-21T05:01:31.691Z,101142.38
2023-04-21T05:03:58.962Z,101141.94
2023-04-21T05:06:26.559Z,101145.50
2023-04-21T05:08:53.739Z,101141.47
2023-04-21T05:11:20.738Z,101146.16
2023-04-21T05:13:47.609Z,101138.75
2023-04-21T05:16:14.596Z,101136.97
2023-04-21T05:18:41.443Z,101134.94
2023-04-21T05:21:08.326Z,101129.50
2023-04-21T05:23:35.228Z,101123.22
2023-04-21T05:26:04.139Z,101131.91
2023-04-21T05:28:32.175Z,101126.47
2023-04-21T05:30:59.141Z,101132.59
2023-04-21T05:33:27.134Z,101125.19
2023-04-21T05:35:54.389Z,101127.69
2023-04-21T05:38:21.314Z,101108.53
2023-04-21T05:40:58.249Z,101107.06
2023-04-21T05:43:25.190Z,101107.59
2023-04-21T05:45:52.080Z,101109.22
2023-04-21T05:48:18.951Z,101099.34
2023-04-21T05:50:46.018Z,101105.81
2023-04-21T05:53:12.885Z,101109.44
2023-04-21T05:55:39.729Z,101107.47
2023-04-21T05:58:06.615Z,101095.38
2023-04-21T06:00:33.533Z,101094.19
2023-04-21T06:03:00.730Z,101097.84
2023-04-21T06:05:27.917Z,101090.59
2023-04-21T06:07:55.009Z,101089.75
2023-04-21T06:10:22.083Z,101090.59
2023-04-21T06:12:49.432Z,101083.78
2023-04-21T06:15:16.755Z,101077.31
2023-04-21T06:17:43.675Z,101079.31
2023-04-21T06:20:13.956Z,101082.44
2023-04-21T06:22:40.904Z,101072.97
2023-04-21T06:25:08.121Z,101069.75
2023-04-21T06:27:35.058Z,101064.34
2023-04-21T06:30:02.044Z,101063.50
2023-04-21T06:32:29.117Z,101053.88
2023-04-21T06:34:56.175Z,101054.72
2023-04-21T06:37:23.176Z,101050.47
2023-04-21T06:39:50.247Z,101043.03
2023-04-21T06:42:17.166Z,101040.94
2023-04-21T06:44:44.092Z,101030.38
2023-04-21T06:47:11.156Z,101038.19
2023-04-21T06:49:38.125Z,101031.09
2023-04-21T06:52:05.304Z,101029.28
2023-04-21T06:54:32.527Z,101021.06
2023-04-21T06:56:59.580Z,101033.34
2023-04-21T06:59:26.429Z,101044.38
2023-04-21T07:01:53.346Z,101036.38
2023-04-21T07:04:20.384Z,101029.91
2023-04-21T07:06:47.996Z,101030.06
2023-04-21T07:09:15.249Z,101026.72
2023-04-21T07:11:42.481Z,101016.19
2023-04-21T07:14:09.844Z,101007.03
2023-04-21T07:16:36.739Z,101005.34
2023-04-21T07:19:03.866Z,101004.59
2023-04-21T07:21:32.496Z,101006.81
2023-04-21T07:23:59.503Z,101005.03
2023-04-21T07:26:26.485Z,100998.97
2023-04-21T07:28:53.960Z,101001.34
2023-04-21T07:31:21.230Z,101008.50
2023-04-21T07:33:48.687Z,101003.03
2023-04-21T07:36:16.274Z,101004.59
2023-04-21T07:38:43.699Z,101008.63
2023-04-21T07:41:11.802Z,101004.84
2023-04-21T07:43:39.283Z,100997.56
2023-04-21T07:46:06.284Z,100994.94
2023-04-21T07:51:01.447Z,100984.56
2023-04-21T07:53:28.534Z,100981.41
2023-04-21T07:55:55.558Z,100979.41
2023-04-21T07:58:23.000Z,100975.44
2023-04-21T08:00:50.938Z,100975.13
2023-04-21T08:03:18.160Z,100981.59
2023-04-21T08:05:45.501Z,100972.16
2023-04-21T08:08:12.777Z,100968.66
2023-04-21T08:10:39.829Z,100971.78
2023-04-21T08:13:07.030Z,100957.84
2023-04-21T08:15:35.166Z,100959.84
2023-04-21T08:20:29.767Z,100964.31
2023-04-21T08:22:56.810Z,100966.50
2023-04-21T08:25:24.305Z,100966.50
2023-04-21T08:27:51.806Z,100966.28
2023-04-21T08:30:19.087Z,100968.31
2023-04-21T08:32:46.357Z,100966.63
2023-04-21T08:35:13.822Z,100969.09
2023-04-21T08:37:41.192Z,100962.50
2023-04-21T08:40:08.629Z,100963.53
2023-04-21T08:42:37.812Z,100961.22
2023-04-21T08:45:05.647Z,100963.38
2023-04-21T08:47:33.610Z,100959.09
2023-04-21T08:50:01.161Z,100960.75
2023-04-21T08:52:28.427Z,100956.97
2023-04-21T08:54:56.211Z,100957.78
2023-04-21T08:57:26.117Z,100960.78
2023-04-21T08:59:53.262Z,100966.91
2023-04-21T09:02:20.823Z,100960.13
2023-04-21T09:04:52.405Z,100955.00
2023-04-21T09:07:30.364Z,100965.09
2023-04-21T09:09:58.203Z,100957.16
2023-04-21T09:12:25.607Z,100953.50
2023-04-21T09:14:52.954Z,100955.66
2023-04-21T09:17:29.144Z,100948.72
2023-04-21T09:19:56.408Z,100959.97
2023-04-21T09:22:27.389Z,100960.50
2023-04-21T09:25:01.598Z,100962.47
2023-04-21T09:27:29.251Z,100965.09
2023-04-21T09:29:56.331Z,100952.19
2023-04-21T09:32:23.592Z,100963.13
2023-04-21T09:34:50.651Z,100956.81
2023-04-21T09:37:18.931Z,100955.97
2023-04-21T09:40:03.677Z,100954.63
2023-04-21T09:42:32.731Z,100955.28
2023-04-21T09:47:39.568Z,100953.44
2023-04-21T09:52:35.537Z,100950.25
2023-04-21T09:55:04.840Z,100947.25
2023-04-21T10:00:05.752Z,100946.38
2023-04-21T10:02:35.606Z,100949.03
2023-04-21T10:05:04.442Z,100942.56
2023-04-21T10:07:31.785Z,100942.88
2023-04-21T10:09:59.975Z,100946.16
2023-04-21T10:12:28.127Z,100935.53
2023-04-21T10:14:56.152Z,100944.13
2023-04-21T10:17:25.592Z,100939.44
2023-04-21T10:19:53.986Z,100940.06
2023-04-21T10:22:30.675Z,100949.50
2023-04-21T10:24:58.863Z,100941.38
2023-04-21T10:27:35.980Z,100938.69
2023-04-21T10:30:18.816Z,100933.38
2023-04-21T10:32:46.911Z,100931.22
2023-04-21T10:35:14.922Z,100938.31
2023-04-21T10:37:42.961Z,100935.81
2023-04-21T10:40:21.067Z,100928.00
2023-04-21T10:42:51.001Z,100935.97
2023-04-21T10:45:18.459Z,100933.75
2023-04-21T10:47:47.181Z,100935.56
2023-04-21T10:50:15.612Z,100932.25
2023-04-21T10:52:47.375Z,100935.06
2023-04-21T10:55:16.625Z,100927.25
2023-04-21T10:57:45.464Z,100933.41
2023-04-21T11:00:15.818Z,100934.41
2023-04-21T11:02:44.818Z,100931.47
2023-04-21T11:05:12.300Z,100938.50
2023-04-21T11:07:39.477Z,100928.63
2023-04-21T11:10:08.921Z,100930.16
2023-04-21T11:12:38.599Z,100927.06
2023-04-21T11:15:09.084Z,100921.00
2023-04-21T11:17:36.741Z,100918.88
2023-04-21T11:20:05.232Z,100923.53
2023-04-21T11:24:59.605Z,100916.09
2023-04-21T11:27:27.484Z,100920.22
2023-04-21T11:29:54.595Z,100919.25
2023-04-21T11:32:21.729Z,100918.09
2023-04-21T11:34:49.088Z,100915.28
2023-04-21T11:37:17.492Z,100916.97
2023-04-21T11:39:44.749Z,100911.50
2023-04-21T11:42:12.961Z,100913.69
2023-04-21T11:44:41.358Z,100912.84
2023-04-21T11:47:16.470Z,100912.84
2023-04-21T11:49:47.891Z,100901.56
2023-04-21T11:52:23.199Z,100901.56
2023-04-21T11:54:55.741Z,100899.38
2023-04-21T11:57:23.485Z,100909.03
2023-04-21T11:59:50.600Z,100905.69
2023-04-21T12:02:26.093Z,100905.38
2023-04-21T12:05:03.330Z,100906.84
2023-04-21T12:07:31.879Z,100910.81
2023-04-21T12:09:59.237Z,100918.78
2023-04-21T12:12:27.173Z,100911.28
2023-04-21T12:14:54.686Z,100907.47
2023-04-21T12:17:22.016Z,100909.28
2023-04-21T12:19:49.353Z,100909.28
2023-04-21T12:22:18.667Z,100911.41
2023-04-21T12:24:46.251Z,100920.81
2023-04-21T12:27:13.653Z,100913.00
2023-04-21T12:29:41.647Z,100909.66
2023-04-21T12:32:10.397Z,100914.47
2023-04-21T12:34:37.790Z,100911.97
2023-04-21T12:37:05.524Z,100903.19
2023-04-21T12:39:33.009Z,100906.66
2023-04-21T12:42:00.932Z,100907.63
2023-04-21T12:44:28.213Z,100903.81
2023-04-21T12:46:55.636Z,100898.50
2023-04-21T12:49:23.217Z,100904.13
2023-04-21T12:51:50.424Z,100903.94
2023-04-21T12:54:18.519Z,100901.75
2023-04-21T12:56:45.727Z,100902.09
2023-04-21T12:59:13.153Z,100900.75
2023-04-21T13:01:41.382Z,100898.75
2023-04-21T13:04:09.294Z,100899.91
2023-04-21T13:06:38.927Z,100905.53
2023-04-21T13:09:07.000Z,100900.75
2023-04-21T13:11:34.281Z,100894.28
2023-04-21T13:14:01.803Z,100897.44
2023-04-21T13:16:30.321Z,100889.31
2023-04-21T13:18:57.815Z,100894.09
2023-04-21T13:21:24.943Z,100889.31
2023-04-21T13:23:52.294Z,100890.25
2023-04-21T13:26:19.919Z,100890.91
2023-04-21T13:28:48.281Z,100891.53
2023-04-21T13:31:15.510Z,100895.00
2023-04-21T13:33:42.872Z,100892.84
2023-04-21T13:36:13.005Z,100890.88
2023-04-21T13:38:41.558Z,100889.38
2023-04-21T13:41:09.120Z,100886.56
2023-04-21T13:43:36.656Z,100886.38
2023-04-21T13:46:03.947Z,100885.56
2023-04-21T13:48:31.355Z,100890.66
2023-04-21T13:50:58.525Z,100885.03
2023-04-21T13:53:25.967Z,100879.22
2023-04-21T13:55:55.187Z,100888.50
2023-04-21T13:58:22.550Z,100875.91
2023-04-21T14:00:50.042Z,100872.25
2023-04-21T14:03:17.687Z,100871.72
2023-04-21T14:05:45.424Z,100881.31
2023-04-21T14:08:12.971Z,100862.28
2023-04-21T14:10:40.287Z,100862.28
2023-04-21T14:13:08.834Z,100859.78
2023-04-21T14:15:38.426Z,100864.91
2023-04-21T14:18:05.771Z,100856.78
2023-04-21T14:20:32.941Z,100864.72
2023-04-21T14:23:01.416Z,100861.38
2023-04-21T14:25:28.690Z,100860.06
2023-04-21T14:27:55.965Z,100849.09
2023-04-21T14:30:23.364Z,100860.16
2023-04-21T14:32:51.043Z,100844.81
2023-04-21T14:35:18.486Z,100844.00
2023-04-21T14:37:45.930Z,100842.22
2023-04-21T14:40:13.729Z,100841.19
2023-04-21T14:42:42.769Z,100838.38
2023-04-21T14:45:10.922Z,100834.75
2023-04-21T14:47:38.660Z,100828.06
2023-04-21T14:50:06.998Z,100829.13
2023-04-21T14:52:34.362Z,100827.22
2023-04-21T14:55:02.037Z,100819.94
2023-04-21T14:57:29.645Z,100825.56
2023-04-21T14:59:57.109Z,100825.25
2023-04-21T15:02:25.646Z,100823.41
2023-04-21T15:04:54.610Z,100815.28
2023-04-21T15:07:24.407Z,100820.72
2023-04-21T15:09:52.520Z,100815.41
2023-04-21T15:12:20.128Z,100809.78
2023-04-21T15:14:47.567Z,100804.16
2023-04-21T15:17:14.771Z,100808.09
2023-04-21T15:19:42.310Z,100801.16
2023-04-21T15:22:09.256Z,100806.59
2023-04-21T15:24:36.610Z,100807.75
2023-04-21T15:27:04.740Z,100816.50
2023-04-21T15:29:34.556Z,100809.19
2023-04-21T15:32:02.105Z,100796.31
2023-04-21T15:34:30.082Z,100793.81
2023-04-21T15:36:57.690Z,100794.94
2023-04-21T15:39:24.980Z,100789.13
2023-04-21T15:41:54.108Z,100789.97
2023-04-21T15:44:22.111Z,100789.97
2023-04-21T15:46:49.480Z,100782.69
2023-04-21T15:49:17.280Z,100786.63
2023-04-21T15:51:44.759Z,100774.06
2023-04-21T15:54:12.122Z,100774.91
2023-04-21T15:56:39.940Z,100762.81
2023-04-21T15:59:08.242Z,100761.16
2023-04-21T16:01:35.999Z,100762.28
2023-04-21T16:04:04.030Z,100773.03
2023-04-21T16:06:32.381Z,100763.44
2023-04-21T16:08:59.605Z,100764.63
2023-04-21T16:11:28.553Z,100764.09
2023-04-21T16:13:55.984Z,100765.22
2023-04-21T16:16:23.572Z,100748.06
2023-04-21T16:18:51.078Z,100756.19
2023-04-21T16:21:18.309Z,100754.50
2023-04-21T16:23:45.854Z,100753.16
2023-04-21T16:26:13.416Z,100749.84
2023-04-21T16:28:40.595Z,100754.09
2023-04-21T16:31:07.849Z,100750.16
2023-04-21T16:33:35.318Z,100751.00
2023-04-21T16:36:02.798Z,100744.03
2023-04-21T16:38:30.021Z,100752.47
2023-04-21T16:40:57.664Z,100742.38
2023-04-21T16:43:24.977Z,100753.09
2023-04-21T16:45:52.580Z,100751.44
2023-04-21T16:48:19.734Z,100762.69
2023-04-21T16:50:47.468Z,100754.25
2023-04-21T16:53:14.763Z,100763.31
2023-04-21T16:55:45.146Z,100758.66
2023-04-21T16:58:12.845Z,100759.00
2023-04-21T17:00:40.395Z,100752.84
2023-04-21T17:03:07.923Z,100750.34
2023-04-21T17:05:39.770Z,100747.34
2023-04-21T17:08:07.233Z,100746.50
2023-04-21T17:10:34.388Z,100746.84
2023-04-21T17:13:01.831Z,100751.63
2023-04-21T17:15:28.919Z,100734.25
2023-04-21T17:17:56.406Z,100741.84
2023-04-21T17:20:23.641Z,100735.72
2023-04-21T17:22:50.997Z,100736.34
2023-04-21T17:25:18.352Z,100729.84
2023-04-21T17:27:46.976Z,100733.00
2023-04-21T17:30:14.356Z,100728.84
2023-04-21T17:32:41.550Z,100736.75
2023-04-21T17:35:09.157Z,100725.84
2023-04-21T17:37:36.777Z,100719.72
2023-04-21T17:40:04.284Z,100716.06
2023-04-21T17:42:34.094Z,100724.81
2023-04-21T17:45:02.881Z,100714.22
2023-04-21T17:47:29.907Z,100716.50
2023-04-21T17:49:56.929Z,100714.84
2023-04-21T17:52:24.071Z,100724.44
2023-04-21T17:54:51.602Z,100723.06
2023-04-21T17:57:18.777Z,100718.59
2023-04-21T17:59:45.936Z,100716.13
2023-04-21T18:02:13.274Z,100704.38
2023-04-21T18:04:40.928Z,100709.97
2023-04-21T18:07:11.682Z,100708.31
2023-04-21T18:09:38.809Z,100702.19
2023-04-21T18:12:05.715Z,100705.31
2023-04-21T18:14:33.063Z,100698.84
2023-04-21T18:17:00.117Z,100698.84
2023-04-21T18:19:27.656Z,100696.69
2023-04-21T18:21:54.719Z,100703.44
2023-04-21T18:24:21.761Z,100700.94
2023-04-21T18:26:48.759Z,100706.91
2023-04-21T18:29:18.058Z,100706.91
2023-04-21T18:31:45.295Z,100704.75
2023-04-21T18:34:14.660Z,100702.22
2023-04-21T18:36:44.683Z,100698.59
2023-04-21T18:39:12.120Z,100704.19
2023-04-21T18:41:39.512Z,100694.94
2023-04-21T18:44:06.665Z,100692.44
2023-04-21T18:46:34.199Z,100686.63
2023-04-21T18:49:01.333Z,100689.78
2023-04-21T18:51:28.254Z,100685.31
2023-04-21T18:53:55.301Z,100680.00
2023-04-21T18:56:22.328Z,100680.63
2023-04-21T18:58:49.458Z,100683.44
2023-04-21T19:01:17.073Z,100672.53
2023-04-21T19:03:45.273Z,100675.63
2023-04-21T19:06:12.514Z,100679.09
2023-04-21T19:08:42.665Z,100682.41
2023-04-21T19:11:11.795Z,100681.06
2023-04-21T19:13:39.161Z,100681.88
2023-04-21T19:16:06.601Z,100677.75
2023-04-21T19:18:34.004Z,100678.06
2023-04-21T19:21:05.086Z,100673.91
2023-04-21T19:23:32.249Z,100685.13
2023-04-21T19:26:00.424Z,100675.06
2023-04-21T19:28:27.475Z,100684.63
2023-04-21T19:30:54.395Z,100682.09
2023-04-21T19:33:21.421Z,100682.94
2023-04-21T19:35:48.487Z,100684.06
2023-04-21T19:38:15.881Z,100678.81
2023-04-21T19:40:45.244Z,100685.56
2023-04-21T19:43:13.258Z,100672.66
2023-04-21T19:45:40.311Z,100675.28
2023-04-21T19:48:08.282Z,100663.75
2023-04-21T19:50:36.150Z,100657.28
2023-04-21T19:53:03.374Z,100659.56
2023-04-21T19:55:30.788Z,100654.56
2023-04-21T19:57:58.840Z,100659.06
2023-04-21T20:00:26.059Z,100650.94
2023-04-21T20:02:53.326Z,100659.34
2023-04-21T20:05:20.773Z,100658.81
2023-04-21T20:07:47.825Z,100655.22
2023-04-21T20:10:14.775Z,100663.63
2023-04-21T20:12:41.800Z,100661.41
2023-04-21T20:15:09.209Z,100660.59
2023-04-21T20:17:37.343Z,100653.34
2023-04-21T20:20:05.765Z,100659.25
2023-04-21T20:22:32.728Z,100662.06
2023-04-21T20:24:59.722Z,100660.38
2023-04-21T20:27:27.196Z,100663.50
2023-04-21T20:29:57.141Z,100651.47
2023-04-21T20:32:24.067Z,100652.63
2023-04-21T20:34:53.611Z,100659.66
2023-04-21T20:37:20.695Z,100663.31
2023-04-21T20:39:47.728Z,100667.25
2023-04-21T20:42:15.612Z,100667.56
2023-04-21T20:44:43.671Z,100667.88
2023-04-21T20:47:14.449Z,100666.22
2023-04-21T20:49:43.023Z,100665.72
2023-04-21T20:52:10.050Z,100671.31
2023-04-21T20:54:36.971Z,100666.00
2023-04-21T20:57:04.136Z,100656.75
2023-04-21T20:59:31.200Z,100653.97
2023-04-21T21:01:58.129Z,100655.44
2023-04-21T21:04:25.241Z,100654.59
2023-04-21T21:06:52.262Z,100647.63
2023-04-21T21:09:19.261Z,100649.63
2023-04-21T21:11:48.521Z,100647.13
2023-04-21T21:14:15.569Z,100642.34
2023-04-21T21:16:43.080Z,100636.72
2023-04-21T21:19:10.461Z,100640.13
2023-04-21T21:21:37.297Z,100638.50
2023-04-21T21:24:04.367Z,100638.69
2023-04-21T21:26:34.370Z,100637.22
2023-04-21T21:29:01.698Z,100637.47
2023-04-21T21:31:28.698Z,100643.78
2023-04-21T21:33:55.660Z,100633.59
2023-04-21T21:36:22.688Z,100632.53
2023-04-21T21:38:49.818Z,100627.88
2023-04-21T21:41:19.154Z,100626.31
2023-04-21T21:43:46.775Z,100625.25
2023-04-21T21:46:13.728Z,100626.47
2023-04-21T21:48:40.839Z,100620.94
2023-04-21T21:51:07.732Z,100622.97
2023-04-21T21:53:34.640Z,100617.44
2023-04-21T21:56:01.600Z,100616.16
2023-04-21T21:58:28.589Z,100611.75
2023-04-21T22:00:55.653Z,100618.59
2023-04-21T22:03:23.003Z,100616.38
2023-04-21T22:05:50.110Z,100627.00
2023-04-21T22:08:17.160Z,100620.59
2023-04-21T22:10:44.325Z,100616.16
2023-04-21T22:13:12.066Z,100617.88
2023-04-21T22:15:39.214Z,100623.53
2023-04-21T22:18:07.484Z,100623.41
2023-04-21T22:20:34.474Z,100623.75
2023-04-21T22:23:01.912Z,100626.94
2023-04-21T22:25:29.275Z,100625.66
2023-04-21T22:27:57.435Z,100623.84
2023-04-21T22:30:27.089Z,100616.59
2023-04-21T22:32:54.188Z,100612.16
2023-04-21T22:35:21.280Z,100618.78
2023-04-21T22:37:49.200Z,100615.19
2023-04-21T22:40:16.260Z,100609.91
2023-04-21T22:42:43.408Z,100610.91
2023-04-21T22:45:10.558Z,100607.28
2023-04-21T22:47:37.481Z,100601.47
2023-04-21T22:50:05.031Z,100597.38
2023-04-21T22:52:31.883Z,100603.66
2023-04-21T22:54:58.791Z,100602.84
2023-04-21T22:57:26.042Z,100603.31
2023-04-21T22:59:52.970Z,100601.03
2023-04-21T23:02:20.108Z,100602.69
2023-04-21T23:04:47.096Z,100596.69
2023-04-21T23:07:13.978Z,100595.22
2023-04-21T23:09:40.970Z,100594.06
2023-04-21T23:12:08.627Z,100581.63
2023-04-21T23:14:35.586Z,100580.16
2023-04-21T23:17:02.604Z,100581.81
2023-04-21T23:19:29.926Z,100583.13
2023-04-21T23:21:56.972Z,100581.97
2023-04-21T23:24:23.829Z,100572.38
2023-04-21T23:26:50.879Z,100576.81
2023-04-21T23:29:18.633Z,100572.84
2023-04-21T23:31:45.814Z,100572.84
2023-04-21T23:34:12.766Z,100563.56
2023-04-21T23:36:39.721Z,100564.41
2023-04-21T23:39:06.654Z,100568.88
2023-04-21T23:41:33.665Z,100567.22
2023-04-21T23:44:00.683Z,100560.75
2023-04-21T23:46:27.608Z,100549.50
2023-04-21T23:48:54.642Z,100551.47
2023-04-21T23:51:22.229Z,100553.16
2023-04-21T23:53:52.328Z,100551.47
2023-04-21T23:56:19.183Z,100548.66
2023-04-21T23:58:46.226Z,100541.41
